Chestnut Ridge, PA

4:49 PM EDT on August 21, 2014 (GMT -0400)
Washington County | Change Station
CLOSE
Current Station
Airport
Location: Washington,
Elevation: 1184 ft
Nearby Weather Stations

Elev 1184 ft 40.14 °N, 80.29 °W | Updated 14 minutes ago

Partly Cloudy
Partly Cloudy
73 °F
Feels Like 73 °F
N
8
Wind Variable Wind from SW

Today
High -- | Low -- °F
--% Chance of Precip.
Yesterday
High -- | Low -- °F
Precip. -- in
6:36 AM 8:07 PM
Waning Crescent, 12% visible
Pressure 30.05 in
Visibility 10.0 miles
Clouds Few 12000 ft
Dew Point 66 °F
Humidity 78%
Rainfall 0.00 in
Snow Depth Not available.
UV 5 out of 12
Pollen 9.30 out of 12
Air Quality Not available.
Flu Activity Not available.
METAR KAFJ 212035Z AUTO 22007KT 10SM FEW120 23/19 A3005 RMK AO1

More Conditions Fewer Conditions

Pressure 30.05 in
Visibility 10.0 miles
Clouds Few 12000 ft
Dew Point 66 °F
Humidity 78%
Rainfall 0.00 in
Snow Depth Not available.
UV 5 out of 12
Pollen 9.30 out of 12
Air Quality Not available.
Flu Activity Not available.
METAR KAFJ 212035Z AUTO 22007KT 10SM FEW120 23/19 A3005 RMK AO1

More Conditions Fewer Conditions

10-Day Weather Forecast

Almanac

Astronomy

Aug. 21, 2014 Rise Set
Actual Time 6:36 AM EDT 8:07 PM EDT
Civil Twilight 6:08 AM EDT 8:35 PM EDT
Nautical Twilight 5:33 AM EDT 9:10 PM EDT
Astronomical Twilight 4:57 AM EDT 9:46 PM EDT
Moon 3:05 AM EDT 5:35 PM EDT
Length of Visible Light 14h 27m
Length of Day
13h 30m
Tomorrow will be 2m 24s shorter.
Waning Crescent, 12% of the Moon is Illuminated
Today
Waning Crescent
Aug 25
New
Sep 2
First Quarter
Sep 8
Full
Sep 15
Last Quarter

Today's Extremes

State Highs State Lows

Community

WunderPhotos

Upload Photos

1,746,017 photos uploaded!

WunderBlogs® & News

Nearby

Snow Depth

Station Depth Elevation
No new snow has been reported.

Earthquake Activity

City Distance Mag. Time & Date
No recent earthquake activity has been reported nearby.
Minimum magnitude displayed is 2.5.

Coastal Water Temperatures

Place Temperature
No Stations Reporting

Nearby Weather Stations